Time;durP1;ratioP1;P1;durP2;ratioP2;P2;SDS_P1;SDS_P2;PMS_P1;PMS_P2;Temp;Humidity;BMP_temperature;BMP_pressure;BME280_temperature;BME280_humidity;BME280_pressure;Samples;Min_cycle;Max_cycle;Signal;HPM_P1;HPM_P2
2022/01/15 00:02:03;;;;;;;15.03;8.43;;;0.10;95.90;;;;;;6229115;23;20491;-83
2022/01/15 00:04:37;;;;;;;15.33;9.23;;;-0.10;96.10;;;;;;6246777;23;20576;-89
2022/01/15 00:07:07;;;;;;;13.97;8.30;;;-0.20;96.50;;;;;;6242658;23;20454;-83
2022/01/15 00:09:49;;;;;;;14.57;8.40;;;-0.20;96.90;;;;;;6221267;23;20225;-86
2022/01/15 00:12:35;;;;;;;12.50;7.40;;;-0.10;97.00;;;;;;6244393;23;20663;-85
2022/01/15 00:15:07;;;;;;;15.60;7.70;;;-0.10;96.90;;;;;;6246381;23;20603;-85
2022/01/15 00:17:47;;;;;;;13.33;7.77;;;-0.20;96.90;;;;;;6243145;22;20666;-84
2022/01/15 00:20:19;;;;;;;11.23;7.60;;;0.00;96.90;;;;;;6246288;23;20176;-85
2022/01/15 00:22:51;;;;;;;10.97;7.40;;;0.00;96.40;;;;;;6239558;23;20203;-86
2022/01/15 00:25:22;;;;;;;12.33;7.67;;;0.10;96.30;;;;;;6245369;23;20164;-84
2022/01/15 00:27:52;;;;;;;9.97;6.47;;;0.10;96.20;;;;;;6243643;23;20211;-84
2022/01/15 00:30:22;;;;;;;10.60;7.00;;;0.20;96.00;;;;;;6245080;23;20202;-84
2022/01/15 00:32:52;;;;;;;10.00;6.60;;;0.20;95.60;;;;;;6244355;23;20201;-86
2022/01/15 00:35:27;;;;;;;10.40;6.30;;;0.20;95.50;;;;;;6244203;23;20174;-84
2022/01/15 00:37:58;;;;;;;7.83;5.67;;;0.00;95.50;;;;;;6244338;23;20202;-84
2022/01/15 00:40:32;;;;;;;9.43;6.03;;;-0.10;95.90;;;;;;6245382;23;20172;-86
2022/01/15 00:43:02;;;;;;;10.93;7.00;;;-0.10;96.20;;;;;;6245813;23;20251;-83
2022/01/15 00:45:33;;;;;;;9.83;6.60;;;-0.10;96.00;;;;;;6244721;23;20613;-85
2022/01/15 00:48:02;;;;;;;8.67;6.30;;;-0.20;96.30;;;;;;6242793;23;20225;-83
2022/01/15 00:50:33;;;;;;;9.70;5.97;;;-0.20;96.60;;;;;;6243802;23;20198;-84
2022/01/15 00:53:10;;;;;;;9.27;6.03;;;-0.10;96.40;;;;;;6240785;23;20203;-88
2022/01/15 00:55:39;;;;;;;10.20;6.53;;;0.00;96.10;;;;;;6243714;23;20199;-84
2022/01/15 00:58:23;;;;;;;9.73;6.03;;;0.00;95.90;;;;;;6238863;23;20209;-85
2022/01/15 01:00:59;;;;;;;9.60;5.90;;;0.00;95.70;;;;;;6244880;23;20157;-85
2022/01/15 01:03:35;;;;;;;9.47;6.30;;;-0.10;95.60;;;;;;6242863;23;20200;-84
2022/01/15 01:06:15;;;;;;;11.87;6.70;;;-0.20;95.80;;;;;;6245675;23;20580;-89
2022/01/15 01:08:47;;;;;;;8.77;6.03;;;-0.40;96.20;;;;;;6229518;23;20234;-86
2022/01/15 01:11:29;;;;;;;9.37;5.90;;;-0.40;96.50;;;;;;6246058;23;20687;-84
2022/01/15 01:25:11;;;;;;;10.77;5.90;;;-0.10;95.90;;;;;;6224092;23;20176;-86
2022/01/15 01:27:47;;;;;;;8.63;5.70;;;-0.10;95.90;;;;;;6221727;23;20211;-85
2022/01/15 01:30:21;;;;;;;9.00;6.30;;;-0.10;95.80;;;;;;6248508;23;20470;-83
2022/01/15 01:32:54;;;;;;;10.77;6.27;;;-0.20;95.70;;;;;;6249215;23;20685;-83
2022/01/15 01:35:33;;;;;;;11.47;6.23;;;-0.20;95.70;;;;;;6249979;23;20586;-84
2022/01/15 01:38:10;;;;;;;9.07;5.87;;;-0.20;95.70;;;;;;6225823;23;20198;-82
2022/01/15 01:40:42;;;;;;;9.70;6.10;;;-0.30;95.60;;;;;;6250856;23;20161;-85
2022/01/15 01:43:30;;;;;;;8.70;5.87;;;-0.40;95.90;;;;;;6224539;23;20203;-84
2022/01/15 01:46:14;;;;;;;9.17;6.33;;;-0.40;95.90;;;;;;6249977;23;20179;-83
2022/01/15 01:48:44;;;;;;;8.00;5.37;;;-0.40;95.80;;;;;;6249280;23;20690;-87
2022/01/15 01:51:20;;;;;;;10.50;5.60;;;-0.40;95.90;;;;;;6246437;23;20187;-89
2022/01/15 01:53:47;;;;;;;10.73;6.27;;;-0.40;95.90;;;;;;6246496;23;20641;-85
2022/01/15 01:56:14;;;;;;;8.10;5.67;;;-0.40;95.90;;;;;;6247819;23;20244;-85
2022/01/15 01:58:42;;;;;;;9.00;5.60;;;-0.50;96.20;;;;;;6246801;23;20248;-89
2022/01/15 02:01:10;;;;;;;8.63;5.50;;;-0.50;96.20;;;;;;6246748;23;20252;-87
2022/01/15 02:03:37;;;;;;;9.77;5.87;;;-0.50;96.10;;;;;;6247096;23;20201;-85
2022/01/15 02:06:04;;;;;;;7.23;5.10;;;-0.50;96.20;;;;;;6248204;23;20243;-86
2022/01/15 02:08:35;;;;;;;8.57;5.60;;;-0.50;96.10;;;;;;6247721;22;20201;-85
2022/01/15 02:11:04;;;;;;;9.87;5.93;;;-0.60;96.00;;;;;;6247989;23;20192;-85
2022/01/15 02:13:31;;;;;;;8.37;5.67;;;-0.70;96.30;;;;;;6247073;23;20201;-88
2022/01/15 02:15:58;;;;;;;8.00;5.53;;;-0.60;96.30;;;;;;6248869;22;20287;-86
2022/01/15 02:18:27;;;;;;;9.23;5.50;;;-0.60;96.20;;;;;;6248568;23;20649;-85
2022/01/15 02:23:32;;;;;;;10.03;6.33;;;-0.60;96.50;;;;;;6248473;23;20210;-85
2022/01/15 02:23:51;;;;;;;8.23;5.53;;;-0.60;96.10;;;;;;6247910;23;20204;-85
2022/01/15 02:26:20;;;;;;;8.80;5.47;;;-0.90;96.20;;;;;;6249296;23;20496;-87
2022/01/15 02:28:53;;;;;;;10.30;5.83;;;-0.90;96.70;;;;;;6249497;23;20257;-87
2022/01/15 02:31:21;;;;;;;7.90;5.57;;;-0.80;96.60;;;;;;6253024;23;20186;-88
2022/01/15 02:33:50;;;;;;;8.60;5.93;;;-0.80;96.50;;;;;;6261105;23;20252;-85
2022/01/15 02:36:21;;;;;;;8.67;5.47;;;-0.80;96.70;;;;;;6251547;23;20173;-87
2022/01/15 02:38:49;;;;;;;7.57;5.27;;;-0.70;96.30;;;;;;6247142;23;20197;-84
2022/01/15 02:41:26;;;;;;;9.47;5.47;;;-0.70;96.10;;;;;;6248922;23;20157;-84
2022/01/15 02:43:53;;;;;;;8.53;5.03;;;-0.70;96.00;;;;;;6248090;23;20275;-84
2022/01/15 02:46:23;;;;;;;9.33;5.63;;;-0.70;95.70;;;;;;6249478;23;20194;-84
2022/01/15 02:48:52;;;;;;;9.60;5.50;;;-0.80;95.90;;;;;;6248409;23;20198;-85
2022/01/15 02:51:22;;;;;;;7.30;5.10;;;-0.80;96.20;;;;;;6248961;23;20189;-83
2022/01/15 02:53:55;;;;;;;7.70;5.57;;;-0.80;96.00;;;;;;6251384;23;20201;-88
2022/01/15 02:56:23;;;;;;;9.77;5.60;;;-0.80;96.00;;;;;;6250141;23;20183;-86
2022/01/15 02:58:51;;;;;;;9.43;5.57;;;-0.90;95.90;;;;;;6251402;23;20209;-87
2022/01/15 03:01:18;;;;;;;8.07;4.90;;;-0.90;95.80;;;;;;6252055;23;20260;-83
2022/01/15 03:03:45;;;;;;;8.33;5.60;;;-0.80;95.80;;;;;;6251564;23;20871;-85
2022/01/15 03:06:13;;;;;;;8.10;5.27;;;-0.80;95.90;;;;;;6225586;23;20169;-83
2022/01/15 03:08:43;;;;;;;8.43;5.93;;;-0.90;95.90;;;;;;6250694;23;20280;-91
2022/01/15 03:11:12;;;;;;;9.13;5.33;;;-0.90;95.70;;;;;;6252324;23;20633;-84
2022/01/15 03:13:40;;;;;;;9.03;5.50;;;-1.00;95.80;;;;;;6224250;23;20205;-85
2022/01/15 03:16:08;;;;;;;9.03;5.30;;;-1.00;95.90;;;;;;6246816;22;20688;-85
2022/01/15 03:18:35;;;;;;;7.43;4.77;;;-1.00;95.70;;;;;;6245701;23;20193;-85
2022/01/15 03:21:03;;;;;;;7.60;4.97;;;-1.10;95.70;;;;;;6219675;23;20799;-86
2022/01/15 03:23:30;;;;;;;7.63;5.00;;;-1.10;95.80;;;;;;6245794;23;20203;-88
2022/01/15 03:25:59;;;;;;;7.50;4.30;;;-1.10;95.80;;;;;;6246627;23;20183;-86
2022/01/15 03:28:26;;;;;;;7.07;4.70;;;-1.10;95.70;;;;;;6246492;23;20193;-88
2022/01/15 03:30:53;;;;;;;5.87;4.30;;;-1.20;95.80;;;;;;6247479;23;20193;-85
2022/01/15 03:33:20;;;;;;;7.73;4.90;;;-1.30;96.00;;;;;;6247099;23;20201;-84
2022/01/15 03:35:47;;;;;;;6.47;4.23;;;-1.50;96.10;;;;;;6246969;23;20173;-87
2022/01/15 03:38:14;;;;;;;6.20;4.47;;;-1.60;96.50;;;;;;6246633;23;20201;-85
2022/01/15 03:40:42;;;;;;;6.37;4.40;;;-1.50;96.90;;;;;;6220730;23;20174;-84
2022/01/15 03:43:10;;;;;;;7.70;4.53;;;-1.50;96.70;;;;;;6247056;23;20217;-84
2022/01/15 03:45:37;;;;;;;8.20;4.63;;;-1.30;96.50;;;;;;6246286;23;20169;-84
2022/01/15 03:48:05;;;;;;;5.60;4.20;;;-1.40;96.40;;;;;;6245734;23;20197;-84
2022/01/15 03:50:33;;;;;;;7.43;4.47;;;-1.50;96.50;;;;;;6244296;23;20228;-86
2022/01/15 03:53:00;;;;;;;8.03;4.93;;;-1.60;96.60;;;;;;6244323;23;20957;-85
2022/01/15 03:55:27;;;;;;;5.60;4.30;;;-1.60;97.00;;;;;;6245603;23;20278;-84
2022/01/15 03:57:54;;;;;;;6.77;3.93;;;-1.50;97.10;;;;;;6244367;23;20195;-85
2022/01/15 04:00:25;;;;;;;6.17;4.10;;;-1.30;96.80;;;;;;6218819;23;20170;-85
2022/01/15 04:02:54;;;;;;;6.00;4.40;;;-1.20;96.70;;;;;;6243998;23;21007;-87
2022/01/15 04:05:21;;;;;;;5.10;4.03;;;-1.20;95.90;;;;;;6244979;23;20670;-84
2022/01/15 04:07:49;;;;;;;6.17;4.10;;;-1.20;95.70;;;;;;6244732;23;20253;-84
2022/01/15 04:10:18;;;;;;;6.73;4.20;;;-1.10;95.60;;;;;;6245197;23;20188;-83
2022/01/15 04:12:45;;;;;;;6.03;4.03;;;-1.20;95.60;;;;;;6244803;23;20512;-84
2022/01/15 04:15:15;;;;;;;8.07;4.33;;;-1.30;95.60;;;;;;6244655;23;20233;-88
2022/01/15 04:17:45;;;;;;;6.17;3.97;;;-1.20;95.60;;;;;;6244109;22;20197;-86
2022/01/15 04:20:16;;;;;;;7.23;4.37;;;-1.30;95.50;;;;;;6246565;23;20252;-85
2022/01/15 04:22:43;;;;;;;7.40;4.43;;;-1.40;95.70;;;;;;6246055;23;20192;-87
2022/01/15 04:25:10;;;;;;;8.10;4.40;;;-1.40;95.90;;;;;;6250122;23;20170;-84
2022/01/15 04:27:38;;;;;;;5.70;4.23;;;-1.60;96.20;;;;;;6252385;23;20253;-89
2022/01/15 04:30:06;;;;;;;6.63;4.40;;;-1.60;96.50;;;;;;6251649;23;20201;-85
2022/01/15 04:32:34;;;;;;;6.40;4.20;;;-1.60;96.50;;;;;;6245697;23;20333;-88
2022/01/15 04:35:02;;;;;;;7.27;4.43;;;-1.50;96.40;;;;;;6244535;23;20168;-86
2022/01/15 04:37:36;;;;;;;6.63;4.33;;;-1.30;96.30;;;;;;6244150;23;20515;-86
2022/01/15 04:40:04;;;;;;;6.07;3.83;;;-1.20;95.90;;;;;;6245357;23;20185;-85
2022/01/15 04:42:42;;;;;;;5.77;4.10;;;-1.20;95.70;;;;;;6244438;23;20271;-84
2022/01/15 04:45:10;;;;;;;6.63;4.10;;;-1.20;95.40;;;;;;6248394;23;20240;-86
2022/01/15 04:47:38;;;;;;;7.10;4.30;;;-1.30;95.50;;;;;;6250092;23;20197;-83
2022/01/15 04:50:11;;;;;;;6.37;4.00;;;-1.30;95.60;;;;;;6249273;23;20252;-84
2022/01/15 04:52:38;;;;;;;7.27;4.80;;;-1.30;95.50;;;;;;6249573;23;20275;-86
2022/01/15 04:55:07;;;;;;;5.10;4.00;;;-1.40;95.80;;;;;;6250591;23;20308;-85
2022/01/15 04:57:35;;;;;;;5.93;3.90;;;-1.30;95.70;;;;;;6254186;23;20260;-86
2022/01/15 05:00:05;;;;;;;6.70;4.07;;;-1.30;95.50;;;;;;6267539;23;20176;-85
2022/01/15 05:02:32;;;;;;;7.17;4.17;;;-1.40;95.60;;;;;;6223626;23;20243;-86
2022/01/15 05:04:59;;;;;;;5.57;4.13;;;-1.50;95.70;;;;;;6248414;23;20263;-85
2022/01/15 05:07:27;;;;;;;6.60;4.23;;;-1.50;96.00;;;;;;6247544;23;20817;-84
2022/01/15 05:09:55;;;;;;;6.00;4.03;;;-1.50;96.10;;;;;;6248471;23;20229;-84
2022/01/15 05:12:28;;;;;;;4.80;3.83;;;-1.50;96.10;;;;;;6249029;23;20280;-85
2022/01/15 05:14:55;;;;;;;6.20;3.90;;;-1.60;96.20;;;;;;6247978;23;20164;-84
2022/01/15 05:17:22;;;;;;;5.60;3.73;;;-1.60;96.30;;;;;;6221233;23;20204;-84
2022/01/15 05:19:49;;;;;;;5.87;3.87;;;-1.50;96.30;;;;;;6223333;23;20246;-86
2022/01/15 05:22:17;;;;;;;7.67;4.67;;;-1.50;95.90;;;;;;6247092;23;20268;-84
2022/01/15 05:24:45;;;;;;;6.33;4.10;;;-1.50;96.10;;;;;;6248547;23;20172;-85
2022/01/15 05:27:12;;;;;;;8.73;4.33;;;-1.40;96.10;;;;;;6248705;23;20568;-85
2022/01/15 05:29:39;;;;;;;7.87;4.10;;;-1.40;95.90;;;;;;6249203;23;20166;-84
2022/01/15 05:32:07;;;;;;;6.80;3.90;;;-1.30;95.70;;;;;;6248599;23;20248;-86
2022/01/15 05:34:34;;;;;;;6.10;4.00;;;-1.30;95.40;;;;;;6248554;23;20165;-84
2022/01/15 05:37:04;;;;;;;5.83;4.20;;;-1.30;95.10;;;;;;6221539;23;20198;-85
2022/01/15 05:39:31;;;;;;;5.67;4.20;;;-1.40;95.00;;;;;;6249391;23;20232;-84
2022/01/15 05:41:59;;;;;;;7.70;4.53;;;-1.40;95.30;;;;;;6249069;23;20203;-87
2022/01/15 05:44:26;;;;;;;6.57;4.30;;;-1.40;95.40;;;;;;6249567;23;20165;-85
2022/01/15 05:46:53;;;;;;;7.87;4.67;;;-1.40;95.20;;;;;;6248318;23;20248;-85
2022/01/15 05:49:21;;;;;;;7.03;4.50;;;-1.60;95.20;;;;;;6248608;23;20175;-86
2022/01/15 05:51:48;;;;;;;5.70;4.23;;;-1.60;95.60;;;;;;6247537;23;20280;-85
2022/01/15 05:54:15;;;;;;;6.37;4.17;;;-1.60;96.00;;;;;;6249742;23;20680;-86
2022/01/15 05:56:42;;;;;;;7.97;4.93;;;-1.50;95.90;;;;;;6249817;23;20244;-84
2022/01/15 05:59:11;;;;;;;5.17;3.67;;;-1.50;95.80;;;;;;6249831;23;20173;-84
2022/01/15 06:01:39;;;;;;;6.80;4.47;;;-1.40;95.70;;;;;;6249648;23;20176;-85
2022/01/15 06:04:06;;;;;;;6.97;4.00;;;-1.40;95.40;;;;;;6251612;23;20216;-85
2022/01/15 06:06:33;;;;;;;6.23;4.00;;;-1.50;95.30;;;;;;6247604;23;20176;-85
2022/01/15 06:09:00;;;;;;;5.53;3.80;;;-1.50;95.30;;;;;;6251530;23;20280;-88
2022/01/15 06:11:27;;;;;;;5.97;3.83;;;-1.60;95.60;;;;;;6233311;23;20603;-86
2022/01/15 06:13:55;;;;;;;5.80;4.10;;;-1.50;95.60;;;;;;6247601;23;20205;-85
2022/01/15 06:16:24;;;;;;;5.97;4.40;;;-1.60;95.60;;;;;;6244363;22;20189;-84
2022/01/15 06:18:51;;;;;;;5.93;4.37;;;-1.60;95.70;;;;;;6240388;23;20200;-85
2022/01/15 06:21:24;;;;;;;6.50;3.80;;;-1.60;95.90;;;;;;6245721;23;20179;-85
2022/01/15 06:23:51;;;;;;;7.40;4.10;;;-1.50;95.70;;;;;;6242630;23;20267;-84
2022/01/15 06:26:18;;;;;;;7.10;4.37;;;-1.50;95.60;;;;;;6244358;23;20180;-86
2022/01/15 06:28:45;;;;;;;6.50;4.23;;;-1.50;95.50;;;;;;6247080;23;20296;-87
2022/01/15 06:31:15;;;;;;;7.53;4.53;;;-1.40;95.50;;;;;;6221353;23;20193;-90
2022/01/15 06:33:43;;;;;;;7.17;4.63;;;-1.50;95.60;;;;;;6246010;23;20200;-88
2022/01/15 06:36:12;;;;;;;6.23;3.70;;;-1.40;95.80;;;;;;6220350;23;20173;-91
2022/01/15 06:38:40;;;;;;;7.60;4.43;;;-1.40;95.60;;;;;;6246372;23;20207;-87
2022/01/15 06:41:07;;;;;;;8.37;5.10;;;-1.50;95.60;;;;;;6247359;23;20173;-86
2022/01/15 06:43:34;;;;;;;7.60;4.40;;;-1.50;96.00;;;;;;6219546;23;20196;-89
2022/01/15 06:46:02;;;;;;;10.43;6.70;;;-1.50;96.00;;;;;;6247163;23;20507;-87
2022/01/15 06:48:30;;;;;;;11.93;6.53;;;-1.50;96.60;;;;;;6220605;23;20227;-86
2022/01/15 06:50:59;;;;;;;12.30;7.10;;;-1.50;97.30;;;;;;6248903;23;20200;-86
2022/01/15 06:53:27;;;;;;;14.80;8.30;;;-1.50;97.70;;;;;;6221944;23;20205;-88
2022/01/15 06:56:02;;;;;;;12.53;8.30;;;-1.40;97.90;;;;;;6221049;23;20173;-86
2022/01/15 06:58:29;;;;;;;19.20;9.20;;;-1.30;97.90;;;;;;6219083;23;20208;-87
2022/01/15 07:00:59;;;;;;;36.70;8.23;;;-1.30;97.70;;;;;;6246939;23;20219;-87
2022/01/15 07:03:26;;;;;;;54.43;9.43;;;-1.30;97.90;;;;;;6247451;23;20200;-86
2022/01/15 07:05:53;;;;;;;37.83;10.30;;;-1.30;97.70;;;;;;6220034;23;20175;-87
2022/01/15 07:08:22;;;;;;;41.77;8.50;;;-1.40;97.80;;;;;;6247144;23;20276;-87
2022/01/15 07:10:49;;;;;;;19.57;7.63;;;-1.40;97.80;;;;;;6248474;23;20169;-87
2022/01/15 07:13:19;;;;;;;21.17;7.73;;;-1.40;97.90;;;;;;6248725;23;20233;-88
2022/01/15 07:15:47;;;;;;;45.37;9.30;;;-1.40;98.00;;;;;;6248270;22;20499;-88
2022/01/15 07:18:14;;;;;;;21.53;7.80;;;-1.40;97.80;;;;;;6248989;23;20276;-83
2022/01/15 07:20:42;;;;;;;31.00;9.30;;;-1.50;97.90;;;;;;6251499;23;20170;-87
2022/01/15 07:23:10;;;;;;;40.30;8.93;;;-1.40;97.90;;;;;;6252993;23;20197;-85
2022/01/15 07:26:00;;;;;;;17.03;7.73;;;-1.50;97.70;;;;;;6263808;23;20169;-86
2022/01/15 07:28:30;;;;;;;36.03;8.90;;;-1.60;97.90;;;;;;6225409;23;20212;-86
2022/01/15 07:30:57;;;;;;;36.30;9.37;;;-1.40;98.00;;;;;;6249078;23;20200;-85
2022/01/15 07:34:00;;;;;;;21.23;8.80;;;-1.50;97.90;;;;;;6248966;23;20197;-85
2022/01/15 07:36:27;;;;;;;35.17;9.10;;;-1.50;98.10;;;;;;6249717;23;20166;-86
2022/01/15 07:38:57;;;;;;;28.30;8.90;;;-1.40;97.90;;;;;;6216280;23;20204;-87
2022/01/15 07:41:26;;;;;;;52.87;9.70;;;-1.40;98.00;;;;;;6243805;23;20162;-84
2022/01/15 07:43:53;;;;;;;33.77;9.63;;;-1.40;97.90;;;;;;6218124;23;20209;-85
2022/01/15 07:46:20;;;;;;;30.87;9.70;;;-1.50;98.10;;;;;;6243841;23;20173;-85
2022/01/15 07:48:47;;;;;;;13.17;8.70;;;-1.40;98.30;;;;;;6244154;23;20660;-88
2022/01/15 07:51:15;;;;;;;30.67;9.63;;;-1.30;98.30;;;;;;6246404;23;20275;-83
2022/01/15 07:53:48;;;;;;;28.03;9.80;;;-1.10;98.00;;;;;;6239822;23;20276;-85
2022/01/15 07:56:15;;;;;;;17.90;9.50;;;-1.00;97.70;;;;;;6240501;23;20684;-81
2022/01/15 07:58:50;;;;;;;27.27;10.07;;;-0.90;97.70;;;;;;6240238;23;20291;-82
2022/01/15 08:01:18;;;;;;;19.87;10.00;;;-0.90;97.30;;;;;;6243353;23;20243;-81
2022/01/15 08:03:46;;;;;;;17.70;9.50;;;-0.80;97.20;;;;;;6245832;23;20197;-80
2022/01/15 08:06:14;;;;;;;27.93;10.20;;;-0.70;97.10;;;;;;6245109;23;20181;-86
2022/01/15 08:08:41;;;;;;;13.50;9.80;;;-0.70;96.70;;;;;;6244297;23;20201;-84
2022/01/15 08:11:08;;;;;;;43.37;10.17;;;-0.60;96.70;;;;;;6243405;23;20165;-79
2022/01/15 08:13:35;;;;;;;18.13;9.97;;;-0.60;96.40;;;;;;6236518;23;20197;-82
2022/01/15 08:16:05;;;;;;;19.17;10.83;;;-0.60;96.50;;;;;;6239719;22;20226;-81
2022/01/15 08:18:32;;;;;;;19.37;9.60;;;-0.60;96.50;;;;;;6240943;23;20205;-81
2022/01/15 08:21:00;;;;;;;28.57;10.40;;;-0.60;96.50;;;;;;6241458;23;20548;-82
2022/01/15 08:23:27;;;;;;;26.73;11.30;;;-0.50;96.50;;;;;;6242940;23;20214;-87
2022/01/15 08:26:03;;;;;;;21.53;10.63;;;-0.30;96.30;;;;;;6243672;23;20268;-82
2022/01/15 08:28:30;;;;;;;29.20;10.73;;;-0.30;95.80;;;;;;6243326;23;20257;-81
2022/01/15 08:30:57;;;;;;;25.00;10.80;;;-0.20;95.70;;;;;;6245296;23;20204;-84
2022/01/15 08:33:34;;;;;;;21.27;11.53;;;-0.20;95.60;;;;;;6242920;23;20195;-80
2022/01/15 08:36:02;;;;;;;24.33;11.23;;;0.00;95.60;;;;;;6244149;23;20696;-83
2022/01/15 08:38:29;;;;;;;32.57;11.13;;;0.10;95.10;;;;;;6244581;23;20671;-85
2022/01/15 08:40:56;;;;;;;23.60;11.77;;;0.20;94.90;;;;;;6242619;23;20168;-80
2022/01/15 08:43:29;;;;;;;17.07;10.77;;;0.30;94.60;;;;;;6242857;23;20208;-84
2022/01/15 08:46:09;;;;;;;25.63;11.20;;;0.40;94.70;;;;;;6217476;23;20195;-81
2022/01/15 08:48:47;;;;;;;14.60;10.70;;;0.20;94.60;;;;;;6242751;23;20197;-82
2022/01/15 08:51:21;;;;;;;14.40;10.20;;;0.20;94.80;;;;;;6243355;23;20158;-83
2022/01/15 08:53:56;;;;;;;17.63;11.40;;;0.40;94.90;;;;;;6241064;23;20727;-84
2022/01/15 08:56:30;;;;;;;19.37;11.10;;;0.20;94.60;;;;;;6243430;23;20473;-82
2022/01/15 08:58:57;;;;;;;14.80;10.90;;;0.20;95.10;;;;;;6243696;23;20231;-81
2022/01/15 09:01:32;;;;;;;16.97;10.43;;;0.40;94.80;;;;;;6243778;23;20207;-82
2022/01/15 09:04:02;;;;;;;15.10;10.33;;;0.30;94.50;;;;;;6243557;23;20280;-85
2022/01/15 09:06:30;;;;;;;14.03;10.27;;;0.50;94.30;;;;;;6242952;23;20257;-84
2022/01/15 09:08:57;;;;;;;13.20;9.93;;;0.80;94.20;;;;;;6242561;23;20284;-84
2022/01/15 09:11:24;;;;;;;15.63;10.00;;;1.30;94.60;;;;;;6245582;23;20170;-86
2022/01/15 09:13:51;;;;;;;16.33;9.97;;;1.90;92.90;;;;;;6242851;23;20231;-84
2022/01/15 09:16:18;;;;;;;17.90;11.03;;;2.00;91.40;;;;;;6243731;22;20185;-84
2022/01/15 09:18:47;;;;;;;15.80;10.87;;;2.00;91.10;;;;;;6243700;23;20278;-89
2022/01/15 09:21:17;;;;;;;14.43;10.53;;;2.60;90.20;;;;;;6246396;23;20193;-87
2022/01/15 09:23:45;;;;;;;17.07;11.40;;;3.30;85.80;;;;;;6246227;23;20566;-88
2022/01/15 09:26:20;;;;;;;13.53;10.40;;;3.90;79.80;;;;;;6247398;23;20177;-88
2022/01/15 09:31:32;;;;;;;11.40;9.52;;;4.30;75.60;;;;;;6229744;23;20184;-88
2022/01/15 09:33:59;;;;;;;10.80;9.38;;;4.30;74.10;;;;;;6248001;23;20579;-86
2022/01/15 09:36:32;;;;;;;12.68;9.40;;;4.30;72.70;;;;;;6249003;23;20273;-87
2022/01/15 09:39:00;;;;;;;15.80;10.15;;;3.90;75.70;;;;;;6250250;23;20284;-88
2022/01/15 09:41:28;;;;;;;13.57;10.47;;;3.00;81.20;;;;;;6247145;23;20187;-90
2022/01/15 09:43:56;;;;;;;14.70;10.90;;;2.90;82.00;;;;;;6246299;22;20287;-87
2022/01/15 09:46:23;;;;;;;16.17;10.93;;;2.80;83.50;;;;;;6245561;23;20332;-84
2022/01/15 09:48:50;;;;;;;16.67;11.27;;;2.60;85.80;;;;;;6247835;23;20272;-87
2022/01/15 09:51:18;;;;;;;15.23;10.73;;;2.50;87.40;;;;;;6250015;23;20188;-86
2022/01/15 09:53:48;;;;;;;17.07;10.40;;;2.50;87.40;;;;;;6249200;23;20199;-86
2022/01/15 09:56:15;;;;;;;22.87;10.77;;;2.40;87.40;;;;;;6245704;23;20196;-82
2022/01/15 09:58:42;;;;;;;13.60;10.50;;;2.20;88.40;;;;;;6245718;23;20272;-82
2022/01/15 10:01:09;;;;;;;18.30;10.63;;;2.10;90.20;;;;;;6247263;23;20192;-85
2022/01/15 10:03:36;;;;;;;13.40;10.40;;;2.00;90.60;;;;;;6243486;23;20518;-81
2022/01/15 10:06:06;;;;;;;13.47;10.73;;;1.80;91.10;;;;;;6242866;23;20267;-90
2022/01/15 10:08:33;;;;;;;14.87;11.13;;;1.70;91.80;;;;;;6242680;23;20201;-88
2022/01/15 10:11:07;;;;;;;14.33;10.90;;;1.70;91.90;;;;;;6244702;23;20165;-84
2022/01/15 10:13:46;;;;;;;16.80;11.07;;;1.70;92.00;;;;;;6243529;23;20224;-84
2022/01/15 10:16:17;;;;;;;15.83;11.90;;;1.70;93.00;;;;;;6244647;22;20189;-83
2022/01/15 10:18:47;;;;;;;20.67;11.73;;;1.80;92.70;;;;;;6244530;23;20276;-86
2022/01/15 10:21:16;;;;;;;19.23;12.50;;;1.90;92.20;;;;;;6244324;23;20173;-84
2022/01/15 10:23:49;;;;;;;17.90;13.33;;;1.90;92.50;;;;;;6243430;23;20208;-87
2022/01/15 10:26:19;;;;;;;22.70;13.67;;;1.70;93.10;;;;;;6244493;23;20169;-84
2022/01/15 10:28:51;;;;;;;21.50;14.60;;;1.70;92.80;;;;;;6243448;23;20228;-83
2022/01/15 10:31:19;;;;;;;17.80;14.23;;;1.60;93.50;;;;;;6244767;23;20169;-83
2022/01/15 10:33:46;;;;;;;21.90;14.37;;;1.60;93.70;;;;;;6243235;23;20284;-86
2022/01/15 10:36:19;;;;;;;20.63;13.80;;;1.70;93.50;;;;;;6244055;23;20173;-82
2022/01/15 10:38:47;;;;;;;32.70;15.10;;;1.70;93.50;;;;;;6242381;23;20199;-83
2022/01/15 10:41:34;;;;;;;29.23;14.87;;;1.80;93.30;;;;;;6242614;23;20169;-91
2022/01/15 10:44:02;;;;;;;31.60;15.17;;;1.70;93.60;;;;;;6243872;23;20275;-83
2022/01/15 10:46:37;;;;;;;23.37;15.77;;;1.60;93.70;;;;;;6244903;23;20169;-85
2022/01/15 10:49:24;;;;;;;31.27;16.03;;;1.60;94.40;;;;;;6249280;23;20229;-85
2022/01/15 10:52:10;;;;;;;27.47;15.67;;;1.60;94.60;;;;;;6249357;23;20557;-86
2022/01/15 10:54:54;;;;;;;43.93;16.07;;;1.70;93.80;;;;;;6252626;23;20192;-83
2022/01/15 10:57:25;;;;;;;24.03;15.40;;;1.70;94.10;;;;;;6248611;23;20265;-86
2022/01/15 11:00:09;;;;;;;27.93;14.87;;;1.80;93.60;;;;;;6250757;23;20200;-84
2022/01/15 11:02:37;;;;;;;29.67;15.00;;;1.70;93.70;;;;;;6246453;23;20193;-89
2022/01/15 11:05:19;;;;;;;34.13;14.43;;;1.70;94.70;;;;;;6245059;23;20164;-85
2022/01/15 11:07:46;;;;;;;28.67;13.83;;;1.20;95.30;;;;;;6249491;23;20221;-83
2022/01/15 11:10:13;;;;;;;21.07;12.73;;;1.50;94.70;;;;;;6247773;23;20205;-88
2022/01/15 11:12:43;;;;;;;24.77;13.20;;;1.60;94.40;;;;;;6213289;23;20644;-83
2022/01/15 11:15:10;;;;;;;18.27;12.00;;;1.60;94.10;;;;;;6245606;23;20241;-82
2022/01/15 11:17:39;;;;;;;24.50;11.70;;;1.70;94.10;;;;;;6244769;22;20263;-83
2022/01/15 11:20:07;;;;;;;17.90;11.90;;;1.70;94.40;;;;;;6242560;23;20176;-82
2022/01/15 11:22:35;;;;;;;28.20;11.90;;;1.70;94.00;;;;;;6241961;23;20193;-81
2022/01/15 11:25:04;;;;;;;22.17;12.97;;;1.60;94.40;;;;;;6243442;23;20538;-86
2022/01/15 11:27:31;;;;;;;21.07;12.80;;;1.50;94.80;;;;;;6244277;23;20211;-84
2022/01/15 11:30:00;;;;;;;29.37;11.83;;;1.70;94.90;;;;;;6242665;23;20208;-84
2022/01/15 11:32:29;;;;;;;20.63;12.73;;;1.70;94.80;;;;;;6241958;23;20656;-85
2022/01/15 11:35:04;;;;;;;21.37;11.80;;;1.80;94.60;;;;;;6242842;23;20179;-84
2022/01/15 11:37:42;;;;;;;31.10;13.07;;;1.80;94.40;;;;;;6241357;23;20275;-82
2022/01/15 11:40:43;;;;;;;30.73;13.07;;;1.70;94.40;;;;;;6242763;23;20169;-83
2022/01/15 11:43:42;;;;;;;25.53;12.93;;;1.80;94.40;;;;;;6148832;23;20525;-82
2022/01/15 11:46:28;;;;;;;24.27;12.47;;;1.80;94.60;;;;;;6246475;23;20904;-82
2022/01/15 11:49:30;;;;;;;37.20;13.57;;;2.00;94.50;;;;;;6246057;23;20201;-82
2022/01/15 11:51:58;;;;;;;27.70;13.37;;;1.90;94.90;;;;;;6246613;23;20172;-82
2022/01/15 11:54:26;;;;;;;35.77;14.33;;;1.60;95.80;;;;;;6247016;23;20248;-83
2022/01/15 11:57:00;;;;;;;26.40;14.33;;;1.90;95.30;;;;;;6246030;23;20223;-83
2022/01/15 11:59:47;;;;;;;28.27;14.63;;;2.00;95.20;;;;;;6247819;23;20180;-82
2022/01/15 12:02:29;;;;;;;34.03;12.83;;;2.30;94.50;;;;;;6247076;23;20266;-81
2022/01/15 12:04:56;;;;;;;25.43;14.43;;;2.30;94.50;;;;;;6248226;23;20441;-84
2022/01/15 12:07:29;;;;;;;23.43;13.73;;;2.10;95.00;;;;;;6246797;23;20516;-82
2022/01/15 12:09:56;;;;;;;39.17;13.83;;;2.20;95.10;;;;;;6248860;23;20520;-83
2022/01/15 12:12:44;;;;;;;22.10;13.73;;;2.30;94.80;;;;;;6247304;23;20235;-81
2022/01/15 12:15:16;;;;;;;25.43;14.03;;;2.40;94.50;;;;;;6249170;23;20511;-81
2022/01/15 12:17:47;;;;;;;22.70;13.47;;;2.40;94.80;;;;;;6249473;22;20197;-84
2022/01/15 12:20:34;;;;;;;21.47;13.43;;;2.30;95.00;;;;;;6249405;23;20178;-81
2022/01/15 12:23:02;;;;;;;26.37;14.47;;;2.30;95.20;;;;;;6248761;23;20224;-82
2022/01/15 12:25:34;;;;;;;39.50;14.50;;;2.30;95.60;;;;;;6247696;23;20165;-84
2022/01/15 12:28:04;;;;;;;35.33;14.67;;;2.30;95.80;;;;;;6248592;23;20524;-84
2022/01/15 12:30:33;;;;;;;26.13;14.53;;;2.40;95.90;;;;;;6249381;23;20166;-83
2022/01/15 12:33:04;;;;;;;22.73;13.17;;;2.40;95.90;;;;;;6245682;23;20201;-86
2022/01/15 12:35:32;;;;;;;24.23;14.20;;;2.40;95.70;;;;;;6246216;23;20176;-87
2022/01/15 12:38:02;;;;;;;29.67;14.60;;;2.50;95.60;;;;;;6244455;23;20196;-84
2022/01/15 12:40:31;;;;;;;31.63;14.73;;;2.50;95.50;;;;;;6246404;23;20483;-87
2022/01/15 12:43:31;;;;;;;36.27;14.87;;;2.50;95.90;;;;;;6247765;23;20197;-85
2022/01/15 12:46:11;;;;;;;23.50;13.73;;;2.60;95.70;;;;;;6251487;23;20241;-85
2022/01/15 12:48:53;;;;;;;26.40;13.53;;;2.50;95.60;;;;;;6248769;23;20193;-85
2022/01/15 12:51:22;;;;;;;37.70;12.80;;;2.50;95.40;;;;;;6247883;23;20200;-84
2022/01/15 12:53:53;;;;;;;39.00;13.87;;;2.50;95.70;;;;;;6244710;23;20209;-85
2022/01/15 12:56:21;;;;;;;29.23;14.00;;;2.40;95.60;;;;;;6244479;23;20154;-85
2022/01/15 12:58:54;;;;;;;99.80;14.90;;;2.40;95.70;;;;;;6246827;23;20291;-83
2022/01/15 13:01:27;;;;;;;72.97;15.00;;;2.20;95.90;;;;;;6246889;23;20164;-85
2022/01/15 13:03:55;;;;;;;48.00;15.13;;;2.10;96.40;;;;;;6247874;23;20951;-85
2022/01/15 13:06:25;;;;;;;24.03;14.13;;;2.10;96.80;;;;;;6248162;23;20260;-85
2022/01/15 13:08:55;;;;;;;51.37;14.53;;;2.00;97.10;;;;;;6248051;23;20204;-85
2022/01/15 13:11:24;;;;;;;34.77;15.17;;;1.90;97.30;;;;;;6245830;23;20171;-86
2022/01/15 13:13:55;;;;;;;39.93;15.03;;;1.80;97.60;;;;;;6247811;23;20247;-84